Time;durP1;ratioP1;P1;durP2;ratioP2;P2;SDS_P1;SDS_P2;PMS_P1;PMS_P2;Temp;Humidity;BMP_temperature;BMP_pressure;BME280_temperature;BME280_humidity;BME280_pressure;Samples;Min_cycle;Max_cycle;Signal;HPM_P1;HPM_P2
2022/09/26 00:01:13;;;;;;;3.10;2.80;;;;;;;;;;5033518;28;20460;-44
2022/09/26 00:03:42;;;;;;;4.17;3.43;;;;;;;;;;5031884;28;20433;-44
2022/09/26 00:06:08;;;;;;;4.37;3.10;;;;;;;;;;5050291;28;20457;-47
2022/09/26 00:08:35;;;;;;;5.03;3.60;;;;;;;;;;5051610;28;20429;-47
2022/09/26 00:11:02;;;;;;;3.70;2.87;;;;;;;;;;5035206;28;20504;-47
2022/09/26 00:13:28;;;;;;;4.50;2.60;;;;;;;;;;5031866;28;21269;-47
2022/09/26 00:15:55;;;;;;;3.40;3.00;;;;;;;;;;5047559;28;20500;-43
2022/09/26 00:18:21;;;;;;;6.77;3.20;;;;;;;;;;5051371;28;20934;-47
2022/09/26 00:20:47;;;;;;;5.87;3.37;;;;;;;;;;5037250;28;21087;-47
2022/09/26 00:23:13;;;;;;;8.93;3.13;;;;;;;;;;5031740;28;20429;-47
2022/09/26 00:25:49;;;;;;;4.37;3.07;;;;;;;;;;5045340;28;20449;-47
2022/09/26 00:28:16;;;;;;;4.67;3.27;;;;;;;;;;5050956;28;20984;-47
2022/09/26 00:30:43;;;;;;;7.77;3.80;;;;;;;;;;5037948;28;20444;-46
2022/09/26 00:33:09;;;;;;;6.87;3.20;;;;;;;;;;5049006;28;20417;-47
2022/09/26 00:35:35;;;;;;;3.90;3.07;;;;;;;;;;5039400;28;20433;-45
2022/09/26 00:38:01;;;;;;;4.90;3.53;;;;;;;;;;5031140;28;20431;-47
2022/09/26 00:40:27;;;;;;;5.40;3.90;;;;;;;;;;5042043;28;20929;-46
2022/09/26 00:42:54;;;;;;;6.03;3.37;;;;;;;;;;5051245;28;20401;-47
2022/09/26 00:45:21;;;;;;;9.57;3.70;;;;;;;;;;5042327;28;20425;-46
2022/09/26 00:47:56;;;;;;;4.80;3.60;;;;;;;;;;5044581;28;20944;-47
2022/09/26 00:50:24;;;;;;;5.00;3.20;;;;;;;;;;5046910;28;20451;-47
2022/09/26 00:52:59;;;;;;;3.60;3.30;;;;;;;;;;5035363;28;20418;-46
2022/09/26 00:55:29;;;;;;;5.43;3.40;;;;;;;;;;5040195;28;20408;-48
2022/09/26 00:58:07;;;;;;;7.83;3.37;;;;;;;;;;5042005;28;20442;-47
2022/09/26 01:00:33;;;;;;;3.93;2.93;;;;;;;;;;5035251;28;20419;-45
2022/09/26 01:03:00;;;;;;;3.77;3.40;;;;;;;;;;5034331;28;20437;-45
2022/09/26 01:05:25;;;;;;;12.97;3.80;;;;;;;;;;5043157;28;20952;-47
2022/09/26 01:07:53;;;;;;;3.73;3.40;;;;;;;;;;5054223;28;20432;-45
2022/09/26 01:10:19;;;;;;;6.10;3.80;;;;;;;;;;5047951;28;20406;-47
2022/09/26 01:12:45;;;;;;;6.77;3.43;;;;;;;;;;5035224;28;20442;-47
2022/09/26 01:15:11;;;;;;;4.70;3.23;;;;;;;;;;5040998;28;20922;-47
2022/09/26 01:17:38;;;;;;;3.67;3.13;;;;;;;;;;5054648;28;20508;-47
2022/09/26 01:20:16;;;;;;;8.30;3.47;;;;;;;;;;5050320;28;20410;-45
2022/09/26 01:23:01;;;;;;;4.07;3.60;;;;;;;;;;5045157;28;20418;-48
2022/09/26 01:26:06;;;;;;;6.60;3.10;;;;;;;;;;5047265;28;20453;-46
2022/09/26 01:28:32;;;;;;;4.23;3.07;;;;;;;;;;5032165;28;20430;-48
2022/09/26 01:31:02;;;;;;;3.33;3.03;;;;;;;;;;5032612;28;20484;-45
2022/09/26 01:33:28;;;;;;;4.07;3.40;;;;;;;;;;5033670;28;20463;-47
2022/09/26 01:36:12;;;;;;;4.50;3.40;;;;;;;;;;5044360;28;20503;-47
2022/09/26 01:38:54;;;;;;;7.63;3.53;;;;;;;;;;5054464;28;20393;-48
2022/09/26 01:41:44;;;;;;;5.60;3.10;;;;;;;;;;5040510;28;20440;-46
2022/09/26 01:44:27;;;;;;;5.57;3.70;;;;;;;;;;5034813;28;20444;-47
2022/09/26 01:46:55;;;;;;;17.67;4.10;;;;;;;;;;5051637;28;20472;-48
2022/09/26 01:49:27;;;;;;;4.10;3.80;;;;;;;;;;5054586;28;20476;-46
2022/09/26 01:51:52;;;;;;;5.20;2.97;;;;;;;;;;5036224;28;20442;-48
2022/09/26 01:54:21;;;;;;;5.63;3.20;;;;;;;;;;5040784;28;20837;-48
2022/09/26 01:56:48;;;;;;;11.90;4.30;;;;;;;;;;5053902;28;20413;-44
2022/09/26 01:59:26;;;;;;;4.53;4.13;;;;;;;;;;5052013;28;20449;-47
2022/09/26 02:01:55;;;;;;;5.03;3.70;;;;;;;;;;5054149;28;20417;-47
2022/09/26 02:04:24;;;;;;;6.53;3.97;;;;;;;;;;5043519;28;20505;-46
2022/09/26 02:07:08;;;;;;;5.17;3.90;;;;;;;;;;5033846;28;21009;-46
2022/09/26 02:09:42;;;;;;;4.30;3.40;;;;;;;;;;5046860;28;20456;-47
2022/09/26 02:12:10;;;;;;;6.10;4.10;;;;;;;;;;5054058;28;20432;-47
2022/09/26 02:14:40;;;;;;;6.03;4.37;;;;;;;;;;5041459;28;20453;-47
2022/09/26 02:17:19;;;;;;;7.20;4.23;;;;;;;;;;5033644;28;20451;-45
2022/09/26 02:19:55;;;;;;;5.97;4.10;;;;;;;;;;5034826;28;20481;-47
2022/09/26 02:22:21;;;;;;;4.40;3.60;;;;;;;;;;5033879;28;20427;-45
2022/09/26 02:24:47;;;;;;;7.00;3.77;;;;;;;;;;5035221;28;20425;-48
2022/09/26 02:27:13;;;;;;;5.97;4.00;;;;;;;;;;5048213;28;20491;-48
2022/09/26 02:29:39;;;;;;;6.17;4.07;;;;;;;;;;5041632;28;20450;-47
2022/09/26 02:32:14;;;;;;;6.53;4.67;;;;;;;;;;5033808;28;20398;-45
2022/09/26 02:34:40;;;;;;;9.57;4.53;;;;;;;;;;5044745;28;20421;-47
2022/09/26 02:37:08;;;;;;;5.20;4.00;;;;;;;;;;5053177;28;20426;-45
2022/09/26 02:39:34;;;;;;;5.00;4.30;;;;;;;;;;5043745;28;20492;-48
2022/09/26 02:42:06;;;;;;;11.07;5.23;;;;;;;;;;5033483;28;20437;-48
2022/09/26 02:44:38;;;;;;;8.70;5.57;;;;;;;;;;5043296;28;20461;-47
2022/09/26 02:47:24;;;;;;;5.47;4.97;;;;;;;;;;5052954;28;20976;-47
2022/09/26 02:50:03;;;;;;;7.23;5.73;;;;;;;;;;5031817;28;20481;-47
2022/09/26 02:52:47;;;;;;;8.73;7.07;;;;;;;;;;5033274;28;20778;-48
2022/09/26 02:55:28;;;;;;;9.40;6.40;;;;;;;;;;5048591;28;20418;-48
2022/09/26 02:58:04;;;;;;;10.10;6.80;;;;;;;;;;5052723;28;20482;-46
2022/09/26 03:00:43;;;;;;;9.70;6.43;;;;;;;;;;5036150;28;20418;-46
2022/09/26 03:03:22;;;;;;;9.30;6.43;;;;;;;;;;5033077;28;20844;-48
2022/09/26 03:05:51;;;;;;;12.03;6.70;;;;;;;;;;5032980;28;20484;-47
2022/09/26 03:08:19;;;;;;;8.10;6.60;;;;;;;;;;5032486;28;20422;-46
2022/09/26 03:10:46;;;;;;;9.40;6.97;;;;;;;;;;5051293;28;20433;-47
2022/09/26 03:13:14;;;;;;;8.63;7.67;;;;;;;;;;5052905;28;20430;-47
2022/09/26 03:15:43;;;;;;;9.37;7.90;;;;;;;;;;5034010;28;20415;-46
2022/09/26 03:18:11;;;;;;;8.93;7.67;;;;;;;;;;5032476;28;20437;-48
2022/09/26 03:20:37;;;;;;;8.73;7.67;;;;;;;;;;5050297;28;20417;-48
2022/09/26 03:23:04;;;;;;;10.10;7.30;;;;;;;;;;5052694;28;20768;-48
2022/09/26 03:25:30;;;;;;;9.60;8.00;;;;;;;;;;5035406;28;20790;-45
2022/09/26 03:27:57;;;;;;;10.47;7.83;;;;;;;;;;5032107;28;21089;-45
2022/09/26 03:30:23;;;;;;;12.03;7.57;;;;;;;;;;5047876;28;20500;-47
2022/09/26 03:32:50;;;;;;;9.17;7.13;;;;;;;;;;5052560;28;20425;-47
2022/09/26 03:35:16;;;;;;;14.40;7.90;;;;;;;;;;5037610;28;20422;-48
2022/09/26 03:37:42;;;;;;;7.97;6.70;;;;;;;;;;5031964;28;20449;-48
2022/09/26 03:40:09;;;;;;;10.20;6.90;;;;;;;;;;5045234;28;20894;-46
2022/09/26 03:42:35;;;;;;;10.63;6.80;;;;;;;;;;5052318;28;20407;-47
2022/09/26 03:45:01;;;;;;;11.53;7.00;;;;;;;;;;5039961;28;20428;-49
2022/09/26 03:47:27;;;;;;;8.00;6.77;;;;;;;;;;5036779;28;20464;-47
2022/09/26 03:49:54;;;;;;;8.87;7.97;;;;;;;;;;5050217;28;20414;-45
2022/09/26 03:52:20;;;;;;;11.20;8.10;;;;;;;;;;5046896;28;20432;-47
2022/09/26 03:54:46;;;;;;;23.17;6.40;;;;;;;;;;5032272;28;20404;-47
2022/09/26 03:57:13;;;;;;;10.57;6.87;;;;;;;;;;5034862;28;20433;-46
2022/09/26 03:59:39;;;;;;;12.20;7.20;;;;;;;;;;5052178;28;20402;-46
2022/09/26 04:02:05;;;;;;;9.47;7.00;;;;;;;;;;5050083;28;20433;-46
2022/09/26 04:04:32;;;;;;;8.30;6.87;;;;;;;;;;5032220;28;20411;-49
2022/09/26 04:06:58;;;;;;;9.20;7.10;;;;;;;;;;5032753;28;20458;-46
2022/09/26 04:09:24;;;;;;;11.13;8.03;;;;;;;;;;5051456;28;20410;-47
2022/09/26 04:11:50;;;;;;;12.77;8.20;;;;;;;;;;5052049;28;20412;-45
2022/09/26 04:14:17;;;;;;;11.63;8.03;;;;;;;;;;5032715;28;20418;-45
2022/09/26 04:16:43;;;;;;;11.30;8.20;;;;;;;;;;5031785;28;20995;-47
2022/09/26 04:19:10;;;;;;;10.73;8.00;;;;;;;;;;5050181;28;20925;-46
2022/09/26 04:21:38;;;;;;;14.07;8.07;;;;;;;;;;5051568;28;20915;-46
2022/09/26 04:24:04;;;;;;;17.67;8.53;;;;;;;;;;5033279;28;20446;-45
2022/09/26 04:26:30;;;;;;;12.50;7.30;;;;;;;;;;5031724;28;20516;-48
2022/09/26 04:28:57;;;;;;;8.73;7.90;;;;;;;;;;5048255;28;20410;-48
2022/09/26 04:31:26;;;;;;;11.80;8.00;;;;;;;;;;5051777;28;20415;-47
2022/09/26 04:33:53;;;;;;;14.33;8.93;;;;;;;;;;5035803;28;20417;-47
2022/09/26 04:36:19;;;;;;;18.93;8.80;;;;;;;;;;5031527;28;20778;-47
2022/09/26 04:38:45;;;;;;;14.90;9.57;;;;;;;;;;5046399;28;20425;-45
2022/09/26 04:41:13;;;;;;;9.90;8.57;;;;;;;;;;5051529;28;20730;-48
2022/09/26 04:43:39;;;;;;;11.50;8.17;;;;;;;;;;5038022;28;20425;-47
2022/09/26 04:46:06;;;;;;;10.50;9.40;;;;;;;;;;5031695;28;20517;-46
2022/09/26 04:48:32;;;;;;;18.23;9.40;;;;;;;;;;5043885;28;20433;-45
2022/09/26 04:50:58;;;;;;;15.90;9.70;;;;;;;;;;5051593;28;20399;-47
2022/09/26 04:53:24;;;;;;;12.70;9.40;;;;;;;;;;5039868;28;20421;-47
2022/09/26 04:55:53;;;;;;;13.73;9.30;;;;;;;;;;5031684;28;20450;-47
2022/09/26 04:58:19;;;;;;;17.17;10.03;;;;;;;;;;5037950;28;20438;-47
2022/09/26 05:00:49;;;;;;;15.30;9.03;;;;;;;;;;5036485;28;20908;-47
2022/09/26 05:03:15;;;;;;;13.23;8.80;;;;;;;;;;5031535;28;20427;-47
2022/09/26 05:05:44;;;;;;;12.90;9.73;;;;;;;;;;5031394;28;20449;-48
2022/09/26 05:08:10;;;;;;;14.80;9.07;;;;;;;;;;5031866;28;20445;-45
2022/09/26 05:10:37;;;;;;;16.77;9.10;;;;;;;;;;5031480;28;20398;-45
2022/09/26 05:13:03;;;;;;;14.53;8.60;;;;;;;;;;5039643;28;20471;-46
2022/09/26 05:15:29;;;;;;;14.57;9.07;;;;;;;;;;5051376;28;20455;-46
2022/09/26 05:18:00;;;;;;;9.87;8.87;;;;;;;;;;5043154;28;20517;-45
2022/09/26 05:20:30;;;;;;;11.07;9.00;;;;;;;;;;5031303;28;20409;-45
2022/09/26 05:23:03;;;;;;;11.03;7.80;;;;;;;;;;5038472;28;20820;-48
2022/09/26 05:28:19;;;;;;;11.90;8.97;;;;;;;;;;5039894;28;20437;-47
2022/09/26 05:30:45;;;;;;;12.73;8.70;;;;;;;;;;5031274;28;20407;-47
2022/09/26 05:33:12;;;;;;;14.23;8.60;;;;;;;;;;5032496;28;20941;-47
2022/09/26 05:35:38;;;;;;;12.50;9.00;;;;;;;;;;5034874;28;20413;-46
2022/09/26 05:38:04;;;;;;;13.83;7.90;;;;;;;;;;5042459;28;20849;-46
2022/09/26 05:43:15;;;;;;;10.13;7.73;;;;;;;;;;5040640;28;20424;-46
2022/09/26 05:45:41;;;;;;;8.30;6.93;;;;;;;;;;5052860;28;20591;-48
2022/09/26 05:48:08;;;;;;;9.23;6.90;;;;;;;;;;5053957;28;20421;-47
2022/09/26 05:50:34;;;;;;;12.50;7.10;;;;;;;;;;5052761;28;20421;-46
2022/09/26 05:53:00;;;;;;;11.53;6.20;;;;;;;;;;5051462;28;20915;-47
2022/09/26 05:55:27;;;;;;;11.93;6.57;;;;;;;;;;5039662;28;20410;-47
2022/09/26 05:57:54;;;;;;;9.30;5.83;;;;;;;;;;5040219;28;21057;-47
2022/09/26 06:00:37;;;;;;;9.10;6.30;;;;;;;;;;5037661;28;20789;-45
2022/09/26 06:03:03;;;;;;;8.53;5.90;;;;;;;;;;5034535;28;20808;-49
2022/09/26 06:05:32;;;;;;;6.93;6.23;;;;;;;;;;5035967;28;20411;-44
2022/09/26 06:07:58;;;;;;;7.87;6.07;;;;;;;;;;5032370;28;20950;-44
2022/09/26 06:10:24;;;;;;;14.13;5.60;;;;;;;;;;5035386;28;20468;-44
2022/09/26 06:12:50;;;;;;;7.57;5.40;;;;;;;;;;5033944;28;20823;-44
2022/09/26 06:15:16;;;;;;;6.80;5.57;;;;;;;;;;5049124;28;20786;-44
2022/09/26 06:17:42;;;;;;;12.07;5.43;;;;;;;;;;5053615;28;20773;-44
2022/09/26 06:20:09;;;;;;;7.13;5.03;;;;;;;;;;5052076;28;20428;-44
2022/09/26 06:22:42;;;;;;;7.90;4.57;;;;;;;;;;5053605;28;20552;-45
2022/09/26 06:25:08;;;;;;;6.50;5.20;;;;;;;;;;5040058;28;20782;-44
2022/09/26 06:27:37;;;;;;;8.00;4.87;;;;;;;;;;5033193;28;20466;-44
2022/09/26 06:30:04;;;;;;;7.80;4.47;;;;;;;;;;5035013;28;20840;-44
2022/09/26 06:32:30;;;;;;;12.50;5.63;;;;;;;;;;5034965;28;20831;-44
2022/09/26 06:34:56;;;;;;;5.87;4.50;;;;;;;;;;5053719;28;20430;-44
2022/09/26 06:37:22;;;;;;;6.10;3.90;;;;;;;;;;5052770;28;20483;-43
2022/09/26 06:39:48;;;;;;;7.77;4.57;;;;;;;;;;5033635;28;20425;-44
2022/09/26 06:42:14;;;;;;;13.27;4.50;;;;;;;;;;5050465;28;20424;-44
2022/09/26 06:44:40;;;;;;;6.10;4.50;;;;;;;;;;5053391;28;20406;-44
2022/09/26 06:47:06;;;;;;;4.40;3.87;;;;;;;;;;5038490;28;20850;-44
2022/09/26 06:49:33;;;;;;;4.33;3.90;;;;;;;;;;5049897;28;20410;-44
2022/09/26 06:51:59;;;;;;;5.00;4.50;;;;;;;;;;5044921;28;20418;-43
2022/09/26 06:54:26;;;;;;;9.80;4.47;;;;;;;;;;5042342;28;20649;-44
2022/09/26 06:56:52;;;;;;;5.20;4.67;;;;;;;;;;5044733;28;20447;-44
2022/09/26 06:59:18;;;;;;;6.30;4.70;;;;;;;;;;5033407;28;20622;-44
2022/09/26 07:01:47;;;;;;;6.87;4.00;;;;;;;;;;5034923;28;20542;-44
2022/09/26 07:04:14;;;;;;;6.53;4.53;;;;;;;;;;5033501;28;20445;-44
2022/09/26 07:06:41;;;;;;;7.77;4.17;;;;;;;;;;5051423;28;20969;-44
2022/09/26 07:09:07;;;;;;;5.37;4.00;;;;;;;;;;5052578;28;20955;-44
2022/09/26 07:11:33;;;;;;;4.03;3.60;;;;;;;;;;5034857;28;20782;-44
2022/09/26 07:14:00;;;;;;;4.30;3.60;;;;;;;;;;5033126;28;20913;-45
2022/09/26 07:16:26;;;;;;;4.93;3.67;;;;;;;;;;5048470;28;20423;-44
2022/09/26 07:18:52;;;;;;;7.90;4.00;;;;;;;;;;5052312;28;20401;-44
2022/09/26 07:21:18;;;;;;;6.17;3.63;;;;;;;;;;5037408;28;20485;-44
2022/09/26 07:23:44;;;;;;;15.93;3.50;;;;;;;;;;5032545;28;20473;-44
2022/09/26 07:26:10;;;;;;;12.83;9.63;;;;;;;;;;5045979;28;20861;-44
2022/09/26 07:28:37;;;;;;;3.80;3.50;;;;;;;;;;5052059;28;20479;-44
2022/09/26 07:31:03;;;;;;;5.97;3.60;;;;;;;;;;5050527;28;20934;-44
2022/09/26 07:33:29;;;;;;;5.70;4.70;;;;;;;;;;5052371;28;20771;-45
2022/09/26 07:35:56;;;;;;;4.00;3.57;;;;;;;;;;5035378;28;20498;-44
2022/09/26 07:38:22;;;;;;;7.37;4.00;;;;;;;;;;5032304;28;20510;-44
2022/09/26 07:40:53;;;;;;;5.50;3.57;;;;;;;;;;5033717;28;20777;-44
2022/09/26 07:43:19;;;;;;;4.53;3.40;;;;;;;;;;5032321;28;20422;-43
2022/09/26 07:51:14;;;;;;;4.30;3.10;;;;;;;;;;5032487;28;20775;-44
2022/09/26 07:53:40;;;;;;;6.03;3.47;;;;;;;;;;5032205;28;20493;-43
2022/09/26 07:56:09;;;;;;;4.33;3.57;;;;;;;;;;5049735;28;20420;-44
2022/09/26 07:58:37;;;;;;;6.80;3.20;;;;;;;;;;5051373;28;20457;-44
2022/09/26 08:01:03;;;;;;;4.50;3.63;;;;;;;;;;5033917;28;20474;-44
2022/09/26 08:03:29;;;;;;;3.73;2.70;;;;;;;;;;5031796;28;20441;-44
2022/09/26 08:05:58;;;;;;;6.30;3.20;;;;;;;;;;5033044;28;20959;-44
2022/09/26 08:08:24;;;;;;;7.10;3.40;;;;;;;;;;5030438;28;20438;-43
2022/09/26 08:10:50;;;;;;;3.30;2.93;;;;;;;;;;5032976;28;20422;-44
2022/09/26 08:13:16;;;;;;;10.70;4.60;;;;;;;;;;5031663;28;20781;-44
2022/09/26 08:15:42;;;;;;;4.50;3.20;;;;;;;;;;5045960;28;20824;-43
2022/09/26 08:18:08;;;;;;;5.33;3.73;;;;;;;;;;5050841;28;20884;-43
2022/09/26 08:20:34;;;;;;;4.97;3.30;;;;;;;;;;5050153;28;20419;-43
2022/09/26 08:23:00;;;;;;;5.33;3.43;;;;;;;;;;5051521;28;20495;-43
2022/09/26 08:25:26;;;;;;;6.50;2.93;;;;;;;;;;5039864;28;20910;-44
2022/09/26 08:27:54;;;;;;;4.10;3.17;;;;;;;;;;5031161;28;20873;-44
2022/09/26 08:30:26;;;;;;;5.97;3.40;;;;;;;;;;5032870;28;20438;-44
2022/09/26 08:32:53;;;;;;;3.83;3.33;;;;;;;;;;5031377;28;20399;-44
2022/09/26 08:35:19;;;;;;;3.93;3.30;;;;;;;;;;5048172;28;21148;-44
2022/09/26 08:37:45;;;;;;;3.50;2.90;;;;;;;;;;5031037;28;20491;-44
2022/09/26 08:40:11;;;;;;;4.70;3.40;;;;;;;;;;5036773;28;20517;-44
2022/09/26 08:42:50;;;;;;;3.17;2.70;;;;;;;;;;5032047;28;20483;-43
2022/09/26 08:48:20;;;;;;;3.97;3.17;;;;;;;;;;5049473;28;20431;-44
2022/09/26 08:50:51;;;;;;;7.13;3.33;;;;;;;;;;5031724;28;20430;-44
2022/09/26 08:53:28;;;;;;;4.73;3.10;;;;;;;;;;5031179;28;20394;-44
2022/09/26 08:55:56;;;;;;;4.10;3.30;;;;;;;;;;5050411;28;20457;-44
2022/09/26 08:58:35;;;;;;;3.53;2.97;;;;;;;;;;5049691;28;20419;-43
2022/09/26 09:01:02;;;;;;;7.17;2.70;;;;;;;;;;5042163;28;20437;-43
2022/09/26 09:03:32;;;;;;;5.33;3.60;;;;;;;;;;5031139;28;20415;-44
2022/09/26 09:06:01;;;;;;;8.20;3.60;;;;;;;;;;5031033;28;20442;-43
2022/09/26 09:08:40;;;;;;;4.50;3.10;;;;;;;;;;5032488;28;20517;-44
2022/09/26 09:11:22;;;;;;;6.87;3.57;;;;;;;;;;5055044;28;20372;-43
2022/09/26 09:14:01;;;;;;;3.43;2.80;;;;;;;;;;5053311;28;20448;-44
2022/09/26 09:16:37;;;;;;;4.00;3.20;;;;;;;;;;5054680;28;20410;-43
2022/09/26 09:19:06;;;;;;;4.50;3.47;;;;;;;;;;5047865;28;20457;-44
2022/09/26 09:21:43;;;;;;;3.90;3.23;;;;;;;;;;5034927;28;20476;-45
2022/09/26 09:24:44;;;;;;;3.00;2.80;;;;;;;;;;5035820;28;20989;-44
2022/09/26 09:27:19;;;;;;;8.63;3.80;;;;;;;;;;5032418;28;20505;-44
2022/09/26 09:30:08;;;;;;;9.13;3.40;;;;;;;;;;5046218;28;20464;-44
2022/09/26 09:32:40;;;;;;;5.97;3.40;;;;;;;;;;5054703;28;20397;-44
2022/09/26 09:35:11;;;;;;;3.40;3.10;;;;;;;;;;5041940;28;20422;-44
2022/09/26 09:37:42;;;;;;;5.03;3.03;;;;;;;;;;5040439;28;20460;-44
2022/09/26 09:40:12;;;;;;;5.90;3.50;;;;;;;;;;5049516;28;20417;-44
2022/09/26 09:42:45;;;;;;;3.80;3.50;;;;;;;;;;5054547;28;20784;-44
2022/09/26 09:45:17;;;;;;;5.73;3.10;;;;;;;;;;5052683;28;20463;-44
2022/09/26 09:47:43;;;;;;;5.13;3.00;;;;;;;;;;5053534;28;21004;-44
2022/09/26 09:50:23;;;;;;;5.83;3.10;;;;;;;;;;5040235;28;20413;-44
2022/09/26 09:53:08;;;;;;;3.43;3.03;;;;;;;;;;5034425;28;20769;-44
2022/09/26 09:55:38;;;;;;;3.80;3.03;;;;;;;;;;5050889;28;20775;-44
2022/09/26 09:58:13;;;;;;;4.27;3.20;;;;;;;;;;5053528;28;20491;-44
2022/09/26 10:00:42;;;;;;;8.90;3.47;;;;;;;;;;5037190;28;20405;-44
2022/09/26 10:03:17;;;;;;;6.00;3.07;;;;;;;;;;5034213;28;20436;-43
2022/09/26 10:05:50;;;;;;;4.70;2.60;;;;;;;;;;5051771;28;20851;-45
2022/09/26 10:08:30;;;;;;;3.73;2.70;;;;;;;;;;5036209;28;20448;-42
2022/09/26 10:11:22;;;;;;;3.00;2.63;;;;;;;;;;5035005;28;20418;-47
2022/09/26 10:13:52;;;;;;;3.00;2.53;;;;;;;;;;5052951;28;20401;-44
2022/09/26 10:16:18;;;;;;;4.43;2.90;;;;;;;;;;5033939;28;20406;-42
2022/09/26 10:18:53;;;;;;;5.40;3.30;;;;;;;;;;5033541;28;20473;-44
2022/09/26 10:21:19;;;;;;;6.27;2.90;;;;;;;;;;5032564;28;20905;-45
2022/09/26 10:23:47;;;;;;;3.57;3.07;;;;;;;;;;5035094;28;20485;-44
2022/09/26 10:26:14;;;;;;;6.30;2.97;;;;;;;;;;5053310;28;20590;-44
2022/09/26 10:28:59;;;;;;;3.43;3.13;;;;;;;;;;5053001;28;20448;-44
2022/09/26 10:31:29;;;;;;;3.50;3.30;;;;;;;;;;5033692;28;20952;-46
2022/09/26 10:33:58;;;;;;;4.23;2.70;;;;;;;;;;5036056;28;20435;-46
2022/09/26 10:36:29;;;;;;;2.50;2.30;;;;;;;;;;5053198;28;20425;-47
2022/09/26 10:42:04;;;;;;;2.53;2.30;;;;;;;;;;5049003;28;20434;-43
2022/09/26 10:44:34;;;;;;;2.93;2.73;;;;;;;;;;5052921;28;20416;-44
2022/09/26 10:47:07;;;;;;;7.13;2.40;;;;;;;;;;5053117;28;20837;-44
2022/09/26 10:49:38;;;;;;;3.33;2.30;;;;;;;;;;5046369;28;20415;-46
2022/09/26 10:52:12;;;;;;;4.40;2.37;;;;;;;;;;5033601;28;20499;-44
2022/09/26 10:54:40;;;;;;;7.10;2.37;;;;;;;;;;5040950;28;20504;-43
2022/09/26 10:57:08;;;;;;;4.60;2.43;;;;;;;;;;5052890;28;20429;-44
2022/09/26 10:59:38;;;;;;;3.53;2.27;;;;;;;;;;5046078;28;20417;-44
2022/09/26 11:02:05;;;;;;;4.60;2.40;;;;;;;;;;5033206;28;20429;-46
2022/09/26 11:07:25;;;;;;;4.10;2.10;;;;;;;;;;5053293;28;20838;-43
2022/09/26 11:09:52;;;;;;;2.07;1.97;;;;;;;;;;5044278;28;20476;-44
2022/09/26 11:12:26;;;;;;;2.63;2.20;;;;;;;;;;5045716;28;20422;-43
2022/09/26 11:14:57;;;;;;;4.27;2.00;;;;;;;;;;5052113;28;20837;-42
2022/09/26 11:17:42;;;;;;;2.23;2.13;;;;;;;;;;5052296;28;20423;-43
2022/09/26 11:20:10;;;;;;;7.10;2.60;;;;;;;;;;5041996;28;20418;-42
2022/09/26 11:22:38;;;;;;;4.00;2.33;;;;;;;;;;5032677;28;20907;-43
2022/09/26 11:25:24;;;;;;;2.47;1.97;;;;;;;;;;5041632;28;20454;-44
2022/09/26 11:27:53;;;;;;;2.60;1.93;;;;;;;;;;5051443;28;20467;-44
2022/09/26 11:30:20;;;;;;;2.00;1.90;;;;;;;;;;5040392;28;20420;-43
2022/09/26 11:32:48;;;;;;;2.97;2.00;;;;;;;;;;5031953;28;20759;-44
2022/09/26 11:35:17;;;;;;;3.43;2.47;;;;;;;;;;5044332;28;20476;-44
2022/09/26 11:37:49;;;;;;;2.23;2.03;;;;;;;;;;5051511;28;20427;-43
2022/09/26 11:40:34;;;;;;;6.00;2.07;;;;;;;;;;5040894;28;20430;-47
2022/09/26 11:43:03;;;;;;;4.33;2.10;;;;;;;;;;5032436;28;20427;-47
2022/09/26 11:45:39;;;;;;;6.50;2.30;;;;;;;;;;5045526;28;20419;-48
2022/09/26 11:48:31;;;;;;;2.33;2.13;;;;;;;;;;5051330;28;20446;-45
2022/09/26 11:51:20;;;;;;;7.50;2.40;;;;;;;;;;5050385;28;20405;-46
2022/09/26 11:53:46;;;;;;;2.63;2.30;;;;;;;;;;5049189;28;20416;-45
2022/09/26 11:56:28;;;;;;;2.93;2.10;;;;;;;;;;5050267;28;20751;-46
2022/09/26 11:59:02;;;;;;;2.80;1.77;;;;;;;;;;5051290;28;20400;-45
2022/09/26 12:01:34;;;;;;;1.90;1.70;;;;;;;;;;5031892;28;20402;-45
2022/09/26 12:04:17;;;;;;;5.13;1.80;;;;;;;;;;5032695;28;20402;-45
2022/09/26 12:07:02;;;;;;;2.07;1.87;;;;;;;;;;5031567;28;20523;-46
2022/09/26 12:09:34;;;;;;;5.80;1.70;;;;;;;;;;5035296;28;20440;-45
2022/09/26 12:12:14;;;;;;;1.93;1.70;;;;;;;;;;5051846;28;20389;-45
2022/09/26 12:14:46;;;;;;;2.23;2.10;;;;;;;;;;5045391;28;20416;-46
2022/09/26 12:17:22;;;;;;;2.10;1.63;;;;;;;;;;5031435;28;20460;-45
2022/09/26 12:19:51;;;;;;;4.43;2.27;;;;;;;;;;5037670;28;20420;-45
2022/09/26 12:22:29;;;;;;;3.33;2.30;;;;;;;;;;5051636;28;20399;-45
2022/09/26 12:25:10;;;;;;;8.03;2.73;;;;;;;;;;5043364;28;20424;-45
2022/09/26 12:27:44;;;;;;;3.67;2.43;;;;;;;;;;5031076;28;20461;-43
2022/09/26 12:30:13;;;;;;;3.20;2.40;;;;;;;;;;5041268;28;20417;-45
2022/09/26 12:32:56;;;;;;;6.20;2.17;;;;;;;;;;5051602;28;20402;-46
2022/09/26 12:35:34;;;;;;;1.87;1.77;;;;;;;;;;5039857;28;20481;-45
2022/09/26 12:38:20;;;;;;;2.83;2.00;;;;;;;;;;5030890;28;20682;-45
2022/09/26 12:40:46;;;;;;;3.27;2.33;;;;;;;;;;5032834;28;20439;-45
2022/09/26 12:43:30;;;;;;;3.27;2.30;;;;;;;;;;5036227;28;21065;-46
2022/09/26 12:46:11;;;;;;;2.40;2.20;;;;;;;;;;5049120;28;20461;-45
2022/09/26 12:48:44;;;;;;;2.60;1.87;;;;;;;;;;5050746;28;20421;-45
2022/09/26 12:51:43;;;;;;;3.20;1.90;;;;;;;;;;5049840;28;20416;-45
2022/09/26 12:54:18;;;;;;;4.57;2.07;;;;;;;;;;5038226;28;20501;-46
2022/09/26 12:57:10;;;;;;;4.00;2.13;;;;;;;;;;5034111;28;20443;-43
2022/09/26 12:59:36;;;;;;;4.77;2.10;;;;;;;;;;5040481;28;20420;-43
2022/09/26 13:02:15;;;;;;;3.77;1.97;;;;;;;;;;5051177;28;20938;-44
2022/09/26 13:04:47;;;;;;;3.20;1.83;;;;;;;;;;5033738;28;20815;-46
2022/09/26 13:07:23;;;;;;;2.83;2.20;;;;;;;;;;5031223;28;20467;-44
2022/09/26 13:09:50;;;;;;;7.00;2.80;;;;;;;;;;5030892;28;20767;-44
2022/09/26 13:12:37;;;;;;;2.60;2.23;;;;;;;;;;5031406;28;20410;-45
2022/09/26 13:15:03;;;;;;;2.30;2.10;;;;;;;;;;5032440;28;20399;-43
2022/09/26 13:17:40;;;;;;;3.73;2.37;;;;;;;;;;5048102;28;20441;-49
2022/09/26 13:20:18;;;;;;;4.73;2.67;;;;;;;;;;5050105;28;20457;-45
2022/09/26 13:22:44;;;;;;;4.07;2.23;;;;;;;;;;5050111;28;20434;-45
2022/09/26 13:25:10;;;;;;;2.43;2.17;;;;;;;;;;5041779;28;20923;-45
2022/09/26 13:27:56;;;;;;;2.53;2.30;;;;;;;;;;5035360;28;20466;-45
2022/09/26 13:30:34;;;;;;;2.20;2.00;;;;;;;;;;5029238;28;20422;-46
2022/09/26 13:33:04;;;;;;;6.97;2.50;;;;;;;;;;5046513;28;20417;-47
2022/09/26 13:35:34;;;;;;;4.80;2.60;;;;;;;;;;5036161;28;20407;-46
2022/09/26 13:38:06;;;;;;;6.60;2.47;;;;;;;;;;5030939;28;20435;-45
2022/09/26 13:40:32;;;;;;;8.13;2.40;;;;;;;;;;5041546;28;20472;-48
2022/09/26 13:43:04;;;;;;;4.27;2.87;;;;;;;;;;5051283;28;20398;-46
2022/09/26 13:45:44;;;;;;;5.40;2.77;;;;;;;;;;5048252;28;20940;-46
2022/09/26 13:48:31;;;;;;;3.03;2.77;;;;;;;;;;5049746;28;20971;-48
2022/09/26 13:51:07;;;;;;;4.80;2.73;;;;;;;;;;5046241;28;20424;-46
2022/09/26 13:53:42;;;;;;;7.47;2.60;;;;;;;;;;5041680;28;20511;-48
2022/09/26 13:56:30;;;;;;;4.50;2.33;;;;;;;;;;5054125;28;20470;-47
2022/09/26 13:59:03;;;;;;;2.97;2.30;;;;;;;;;;5053913;28;20418;-47
2022/09/26 14:01:29;;;;;;;2.90;2.60;;;;;;;;;;5054258;28;20387;-46
2022/09/26 14:04:16;;;;;;;6.07;2.60;;;;;;;;;;5054540;28;20396;-49
2022/09/26 14:07:01;;;;;;;5.10;2.57;;;;;;;;;;5054236;28;20807;-46
2022/09/26 14:09:39;;;;;;;2.93;2.63;;;;;;;;;;5053647;28;20451;-46
2022/09/26 14:12:19;;;;;;;4.40;2.47;;;;;;;;;;5054555;28;20394;-47
2022/09/26 14:14:49;;;;;;;4.83;2.00;;;;;;;;;;5053873;28;20395;-46
2022/09/26 14:17:34;;;;;;;2.50;2.30;;;;;;;;;;5052836;28;20473;-46
2022/09/26 14:20:02;;;;;;;2.57;2.37;;;;;;;;;;5053902;28;20402;-46
2022/09/26 14:22:33;;;;;;;2.33;2.13;;;;;;;;;;5053557;28;20376;-46
2022/09/26 14:25:01;;;;;;;3.33;2.13;;;;;;;;;;5054165;28;20486;-46
2022/09/26 14:27:28;;;;;;;3.30;2.30;;;;;;;;;;5053707;28;20484;-46
2022/09/26 14:30:01;;;;;;;3.23;2.30;;;;;;;;;;5053338;28;20399;-46
2022/09/26 14:32:38;;;;;;;2.53;2.43;;;;;;;;;;5053706;28;20775;-46
2022/09/26 14:35:15;;;;;;;5.80;2.10;;;;;;;;;;5053683;28;20405;-46
2022/09/26 14:37:42;;;;;;;8.57;2.47;;;;;;;;;;5053274;28;20480;-45
2022/09/26 14:40:17;;;;;;;3.70;2.27;;;;;;;;;;5053699;28;20407;-46
2022/09/26 14:42:46;;;;;;;6.60;2.60;;;;;;;;;;5053521;28;21027;-45
2022/09/26 14:45:15;;;;;;;2.40;2.20;;;;;;;;;;5053650;28;20412;-45
2022/09/26 14:47:47;;;;;;;2.70;2.50;;;;;;;;;;5052616;28;20980;-46
2022/09/26 14:50:34;;;;;;;2.63;2.47;;;;;;;;;;5053406;28;20890;-45
2022/09/26 14:53:10;;;;;;;2.57;2.37;;;;;;;;;;5053371;28;20754;-45
2022/09/26 14:55:50;;;;;;;3.10;2.50;;;;;;;;;;5051367;28;20906;-46
2022/09/26 14:58:17;;;;;;;3.00;2.80;;;;;;;;;;5052381;28;20434;-45
2022/09/26 15:00:45;;;;;;;4.20;2.20;;;;;;;;;;5049464;28;20427;-46
2022/09/26 15:03:17;;;;;;;3.47;2.77;;;;;;;;;;5034118;28;20435;-46
2022/09/26 15:05:44;;;;;;;2.90;2.20;;;;;;;;;;5034107;28;20471;-45
2022/09/26 15:08:20;;;;;;;2.90;2.60;;;;;;;;;;5040157;28;20955;-46
2022/09/26 15:10:47;;;;;;;2.37;2.10;;;;;;;;;;5050077;28;20413;-45
2022/09/26 15:13:20;;;;;;;4.20;2.37;;;;;;;;;;5033384;28;20843;-46
2022/09/26 15:15:49;;;;;;;3.30;2.10;;;;;;;;;;5034105;28;20456;-45
2022/09/26 15:18:27;;;;;;;3.03;2.53;;;;;;;;;;5032103;28;20786;-46
2022/09/26 15:21:02;;;;;;;2.70;2.40;;;;;;;;;;5034403;28;20472;-45
2022/09/26 15:23:30;;;;;;;5.53;2.70;;;;;;;;;;5052732;28;20417;-46